Logo AVAMET
Benvolgut visitant, si us plau, ingressa Recuperar contrasenya
AVAMET paisatges

Vilafamés Ajuntament

Dades diàries. Acumulats / Últims 30 dies disponibles

Data Temperatura (°C) Humitat rel. (%) Pressió rel. (hPa) Vent (km/h) Precipitació
Mínima Mitjana Màxima Amplitud
tèrmica
Mínima Mitjana Màxima Mínima Mitjana Màxima Predom. Mitjana Ràfega
màxima
Total
(mm)
Índex-n
Mínima Mitjana Màxima Mínima Mitjana Màxima n
0 a 1
P0 max
mm 5'
Dades mensuals acumulades fins l'últim dia disponible
04/2020 6,3 7,5 8,9 11,0 14,0 15,5 16,9 10,6 49 79 98 1.004 1.010 1.016   5,2 48,3 98,8
Dades anuals acumulades fins l'últim dia disponible
2020 1,8 7,6 13,9 11,7 7,8 16,3 25,2 23,4 17 69 98 988 1.016 1.028   6,1 119,1 454,6
Últims 30 dies disponibles
05-04-2020 6,4     10,9     15,7 9,3 62 79 93 1.013 1.015 1.016 ESE 3,7 27,4 0,0
04-04-2020 6,3     11,1     16,9 10,6 56 76 92 1.012 1.013 1.015 SE 4,7 37,0 0,0
03-04-2020 8,9     11,9     16,1 7,2 49 69 96 1.008 1.010 1.013 W 4,2 35,4 0,0
02-04-2020 7,6     10,3     14,0 6,4 69 87 95 1.005 1.006 1.009 ESE 4,7 35,4 0,4
01-04-2020 8,4     10,9     14,6 6,2 65 88 98 1.004 1.006 1.008 ENE 8,5 48,3 98,4
31-03-2020 3,6     7,4     9,0 5,4 91 96 97 1.005 1.006 1.008 ENE 3,9 29,0 75,6
30-03-2020 4,2     7,9     13,4 9,2 50 68 91 1.006 1.008 1.009 NW 7,1 32,2 2,8
29-03-2020 7,7     14,9     19,2 11,5 34 51 81 1.007 1.010 1.013 SSE 5,8 40,2 0,0
28-03-2020 5,1     11,1     15,3 10,2 50 63 81 1.011 1.012 1.013 W 3,1 25,7 0,0
27-03-2020 4,7     8,6     12,4 7,7 43 68 90 1.007 1.008 1.011 ENE 4,5 27,4 0,0
26-03-2020 4,1     8,0     11,7 7,6 47 72 95 1.002 1.004 1.007 ENE 12,1 67,6 0,0
25-03-2020 5,4     7,1     8,6 3,2 78 88 96 1.008 1.011 1.013 ENE 5,3 27,4 3,4
24-03-2020 7,9     9,4     10,8 2,9 85 92 97 1.011 1.012 1.013 ENE 10,3 41,8 5,2
23-03-2020 9,4     11,0     12,8 3,4 84 93 96 1.009 1.011 1.013 ENE 5,0 35,4 4,6
22-03-2020 8,8     10,8     14,2 5,4 73 88 95 1.005 1.007 1.010 ENE 3,1 25,7 0,4
21-03-2020 7,6     10,2     13,2 5,6 71 85 96 1.006 1.008 1.012 ESE 2,3 17,7 0,0
20-03-2020 8,1     10,4     14,2 6,1 67 86 93 1.012 1.013 1.015 ESE 4,3 27,4 0,0
19-03-2020 7,3     10,7     14,5 7,2 69 82 95 1.015 1.017 1.020 ESE 4,0 20,9 0,0
18-03-2020 9,3     11,6     14,4 5,1 60 83 95 1.019 1.021 1.023 ESE 4,5 30,6 0,0
17-03-2020 11,4     12,0     13,0 1,6 86 97 98 1.013 1.019 1.023 ENE 13,2 53,1 51,0
16-03-2020 10,3     11,6     13,1 2,8 88 94 98 1.006 1.008 1.013 ESE 5,8 30,6 27,4
15-03-2020 7,1     11,6     16,4 9,3 67 85 96 1.009 1.011 1.014 WSW 3,7 33,8 0,2
14-03-2020 9,6     13,6     19,2 9,6 56 72 91 1.012 1.014 1.015 ESE 3,4 22,5 0,0
13-03-2020 9,3     13,2     17,2 7,9 59 74 91 1.012 1.013 1.015 ESE 4,5 22,5 0,0
12-03-2020 12,9     16,7     22,8 9,9 48 64 85 1.010 1.013 1.016 WSW 2,9 24,1 0,0
11-03-2020 12,7     17,8     24,6 11,9 31 50 73 1.015 1.016 1.018 WSW 4,7 30,6 0,0
10-03-2020 10,7     13,2     15,3 4,6 39 60 82 1.016 1.018 1.020 W 6,4 51,5 0,0
09-03-2020 11,7     15,0     19,1 7,4 27 43 63 1.014 1.015 1.017 NNW 13,0 62,8 0,0
08-03-2020 11,1     14,9     19,4 8,3 33 47 66 1.014 1.016 1.018 WSW 2,9 24,1 0,0
07-03-2020 8,4     12,4     17,2 8,8 40 46 52 1.014 1.015 1.018 NNW 18,7 70,8 0,0
Últims 13 mesos disponibles
03/2020 3,6 8,7 13,9 12,4 8,6 16,2 24,6 21,0 43 69 97 998 1.011 1.021 ESE 8,5 119,1 160,8
02/2020 3,9 8,7 13,8 13,4 13,2 18,9 25,2 21,3 32 63 92 1.006 1.019 1.026 WSW 4,8 64,4 1,8
01/2020 1,8 5,6 10,9 9,5 7,8 14,3 19,6 17,8 56 74 97 1.013 1.019 1.026 ESE 5,1 90,1 183,2
12/2019 1,9 8,8 16,3 12,3 9,8 16,2 23,4 21,5 41 68 94 994 1.012 1.027 ESE 7,6 98,2 118,2
11/2019 5,2 9,6 16,6 13,4 12,2 17,2 25,2 20,0 41 53 75 990 1.002 1.010 NW 13,3 91,7 4,0
10/2019 8,9 14,4 18,7 18,4 13,8 22,9 29,1 20,2 45 68 88 1.000 1.010 1.015 SE 5,2 74,0 22,0
09/2019 13,1 17,7 21,0 21,6 19,2 26,1 30,7 17,6 47 69 86 1.003 1.011 1.020 E 6,1 69,2 58,2
08/2019 16,2 19,9 25,2 24,6 24,1 29,6 36,2 20,0 46 67 82 1.004 1.009 1.014 SE 5,1 114,3 25,0
07/2019 18,3 20,6 23,0 25,5 25,9 30,8 36,3 18,0 37 56 77 999 1.007 1.014 SE 5,4 72,4 13,0
06/2019 12,0 16,3 22,3 21,6 19,1 26,9 37,7 25,7 26 55 77 1.001 1.009 1.015 ESE 6,2 69,2 0,0
05/2019 7,8 12,3 16,1 16,8 15,2 21,7 27,4 19,6 42 62 85 998 1.009 1.018 ESE 7,4 77,2 23,2
04/2019 6,2 9,7 13,3 13,3 12,8 17,6 25,6 19,4 41 63 93 992 1.007 1.019 ESE 10,8 72,4 99,4
03/2019 5,7 8,6 13,8 13,5 10,4 18,7 25,4 19,7 32 51 88 1.003 1.016 1.023 ESE 7,0 86,9 18,8
Tots els anys disponibles
2019 1,9 12,6 25,2 16,9 8,8 21,6 37,7 35,8 21 60 94 986 1.010 1.028 ESE 7,7 122,3 385,0
2018 0,0 12,7 26,1 16,8 5,3 21,2 34,6 34,6 ESE 7,1 104,6 672,2
2017 -0,3 12,3 23,6 16,8 6,3 21,7 36,0 36,3 ESE 7,0 122,3 250,8
2016
2014
Temperatura (°C)
Humitat relativa (%)
Velocitat del vent i ràfega màxima (km/h)
Direcció del vent (°)
Pressió (hPa)
Precipitació (mm)
Nota sobre les dades: s'avisa a l'usuari de la provisionalitat i no oficialitat d'aquestes dades
Logo AVAMET blanc
Web allotjada a Sollutia
Llicència de Creative CommonsLa web d'AVAMET i els seus continguts estan subjectes a una llicència de
Reconeixement - No Comercial - Compartir igual
Últimes estacions:  Altea - Com. Regants (Soci), Almoines (Inforatge), Beniparrell (Inforatge), Albal (Inforatge), Almussafes - Parc Industrial (Inforatge), La Vilavella (Soci), la Serratella (soci) - - -